sensor_id;sensor_type;location;lat;lon;timestamp;pressure;altitude;pressure_sealevel;temperature;humidity
50854;BME280;44154;45.506;-122.806;2023-01-31T00:01:20;101978.38;;;23.95;27.17
50854;BME280;44154;45.506;-122.806;2023-01-31T00:03:47;101986.66;;;23.82;27.33
50854;BME280;44154;45.506;-122.806;2023-01-31T00:06:19;101982.72;;;23.71;27.97
50854;BME280;44154;45.506;-122.806;2023-01-31T00:08:47;101975.59;;;23.70;27.26
50854;BME280;44154;45.506;-122.806;2023-01-31T00:11:15;101975.66;;;24.20;26.61
50854;BME280;44154;45.506;-122.806;2023-01-31T00:13:42;101964.50;;;24.84;25.96
50854;BME280;44154;45.506;-122.806;2023-01-31T00:16:09;101968.34;;;25.14;25.57
50854;BME280;44154;45.506;-122.806;2023-01-31T00:18:36;101973.47;;;25.10;25.41
50854;BME280;44154;45.506;-122.806;2023-01-31T00:21:24;101967.16;;;24.91;25.45
50854;BME280;44154;45.506;-122.806;2023-01-31T00:23:51;101970.72;;;24.73;25.85
50854;BME280;44154;45.506;-122.806;2023-01-31T00:26:29;101957.00;;;24.54;26.06
50854;BME280;44154;45.506;-122.806;2023-01-31T00:28:57;101954.88;;;24.38;26.35
50854;BME280;44154;45.506;-122.806;2023-01-31T00:31:26;101926.25;;;24.15;26.60
50854;BME280;44154;45.506;-122.806;2023-01-31T00:33:53;101942.53;;;24.10;26.87
50854;BME280;44154;45.506;-122.806;2023-01-31T00:36:22;101938.16;;;24.02;27.17
50854;BME280;44154;45.506;-122.806;2023-01-31T00:38:50;101932.56;;;23.90;27.05
50854;BME280;44154;45.506;-122.806;2023-01-31T00:41:22;101925.50;;;23.76;27.53
50854;BME280;44154;45.506;-122.806;2023-01-31T00:43:49;101918.22;;;23.70;27.56
50854;BME280;44154;45.506;-122.806;2023-01-31T00:46:16;101908.28;;;24.01;27.28
50854;BME280;44154;45.506;-122.806;2023-01-31T00:48:45;101906.84;;;24.42;26.76
50854;BME280;44154;45.506;-122.806;2023-01-31T00:51:11;101900.84;;;24.70;26.15
50854;BME280;44154;45.506;-122.806;2023-01-31T00:53:37;101893.25;;;24.72;26.15
50854;BME280;44154;45.506;-122.806;2023-01-31T00:56:06;101879.78;;;24.52;26.43
50854;BME280;44154;45.506;-122.806;2023-01-31T00:58:34;101882.97;;;24.31;26.66
50854;BME280;44154;45.506;-122.806;2023-01-31T01:01:07;101873.06;;;24.11;27.38
50854;BME280;44154;45.506;-122.806;2023-01-31T01:03:34;101870.91;;;23.95;27.48
50854;BME280;44154;45.506;-122.806;2023-01-31T01:06:01;101877.53;;;23.80;27.73
50854;BME280;44154;45.506;-122.806;2023-01-31T01:08:30;101885.84;;;23.67;27.91
50854;BME280;44154;45.506;-122.806;2023-01-31T01:11:03;101884.75;;;23.75;27.43
50854;BME280;44154;45.506;-122.806;2023-01-31T01:13:29;101898.22;;;24.20;26.96
50854;BME280;44154;45.506;-122.806;2023-01-31T01:15:55;101892.09;;;24.62;26.31
50854;BME280;44154;45.506;-122.806;2023-01-31T01:18:21;101891.34;;;24.73;25.93
50854;BME280;44154;45.506;-122.806;2023-01-31T01:20:48;101880.13;;;24.56;26.14
50854;BME280;44154;45.506;-122.806;2023-01-31T01:23:14;101879.78;;;24.34;26.67
50854;BME280;44154;45.506;-122.806;2023-01-31T01:25:41;101875.56;;;24.13;26.96
50854;BME280;44154;45.506;-122.806;2023-01-31T01:28:08;101870.69;;;23.96;27.21
50854;BME280;44154;45.506;-122.806;2023-01-31T01:30:36;101869.94;;;23.82;27.23
50854;BME280;44154;45.506;-122.806;2023-01-31T01:33:03;101860.19;;;23.68;27.51
50854;BME280;44154;45.506;-122.806;2023-01-31T01:35:30;101857.00;;;23.71;27.25
50854;BME280;44154;45.506;-122.806;2023-01-31T01:37:56;101861.53;;;24.09;26.72
50854;BME280;44154;45.506;-122.806;2023-01-31T01:40:22;101863.72;;;24.56;26.19
50854;BME280;44154;45.506;-122.806;2023-01-31T01:42:48;101850.66;;;24.76;25.96
50854;BME280;44154;45.506;-122.806;2023-01-31T01:45:14;101852.66;;;24.69;26.08
50854;BME280;44154;45.506;-122.806;2023-01-31T01:50:16;101840.13;;;24.24;26.54
50854;BME280;44154;45.506;-122.806;2023-01-31T01:52:51;101836.75;;;24.04;26.65
50854;BME280;44154;45.506;-122.806;2023-01-31T01:55:22;101836.69;;;23.85;27.08
50854;BME280;44154;45.506;-122.806;2023-01-31T01:57:52;101828.06;;;23.63;27.29
50854;BME280;44154;45.506;-122.806;2023-01-31T02:00:24;101842.72;;;23.69;26.98
50854;BME280;44154;45.506;-122.806;2023-01-31T02:02:55;101853.59;;;24.01;26.77
50854;BME280;44154;45.506;-122.806;2023-01-31T02:05:27;101859.09;;;24.38;26.25
50854;BME280;44154;45.506;-122.806;2023-01-31T02:07:55;101845.34;;;24.63;25.90
50854;BME280;44154;45.506;-122.806;2023-01-31T02:12:57;101850.16;;;24.68;25.75
50854;BME280;44154;45.506;-122.806;2023-01-31T02:15:24;101849.50;;;24.47;26.25
50854;BME280;44154;45.506;-122.806;2023-01-31T02:17:52;101841.75;;;24.25;26.37
50854;BME280;44154;45.506;-122.806;2023-01-31T02:20:40;101849.94;;;24.07;26.72
50854;BME280;44154;45.506;-122.806;2023-01-31T02:23:30;101854.13;;;23.91;27.01
50854;BME280;44154;45.506;-122.806;2023-01-31T02:29:19;101857.78;;;23.78;27.15
50854;BME280;44154;45.506;-122.806;2023-01-31T02:42:59;101825.22;;;24.20;26.75
50854;BME280;44154;45.506;-122.806;2023-01-31T02:45:53;101849.94;;;24.07;26.92
50854;BME280;44154;45.506;-122.806;2023-01-31T02:51:11;101838.88;;;23.77;27.41
50854;BME280;44154;45.506;-122.806;2023-01-31T02:54:10;101840.69;;;23.64;27.66
50854;BME280;44154;45.506;-122.806;2023-01-31T02:56:41;101834.72;;;23.74;27.25
50854;BME280;44154;45.506;-122.806;2023-01-31T02:59:21;101833.88;;;24.17;26.89
50854;BME280;44154;45.506;-122.806;2023-01-31T03:01:58;101836.13;;;24.57;26.25
50854;BME280;44154;45.506;-122.806;2023-01-31T03:04:30;101841.53;;;24.64;26.11
50854;BME280;44154;45.506;-122.806;2023-01-31T03:07:16;101842.38;;;24.46;26.38
50854;BME280;44154;45.506;-122.806;2023-01-31T03:12:35;101834.78;;;24.11;26.69
50854;BME280;44154;45.506;-122.806;2023-01-31T03:17:48;101831.53;;;23.77;27.31
50854;BME280;44154;45.506;-122.806;2023-01-31T03:20:45;101825.09;;;23.65;27.45
50854;BME280;44154;45.506;-122.806;2023-01-31T03:23:23;101817.84;;;23.77;27.34
50854;BME280;44154;45.506;-122.806;2023-01-31T03:25:57;101811.22;;;24.29;26.58
50854;BME280;44154;45.506;-122.806;2023-01-31T03:28:33;101807.38;;;24.85;25.79
50854;BME280;44154;45.506;-122.806;2023-01-31T03:31:17;101813.19;;;24.89;26.25
50854;BME280;44154;45.506;-122.806;2023-01-31T03:33:48;101824.41;;;24.69;26.30
50854;BME280;44154;45.506;-122.806;2023-01-31T03:42:02;101798.69;;;24.02;27.31
50854;BME280;44154;45.506;-122.806;2023-01-31T03:44:51;101793.16;;;23.84;27.49
50854;BME280;44154;45.506;-122.806;2023-01-31T03:47:25;101784.28;;;23.70;27.54
50854;BME280;44154;45.506;-122.806;2023-01-31T03:49:53;101785.19;;;23.82;27.44
50854;BME280;44154;45.506;-122.806;2023-01-31T03:52:32;101784.25;;;24.32;26.89
50854;BME280;44154;45.506;-122.806;2023-01-31T03:55:18;101769.84;;;24.86;25.95
50854;BME280;44154;45.506;-122.806;2023-01-31T03:57:50;101780.34;;;24.89;25.82
50854;BME280;44154;45.506;-122.806;2023-01-31T04:00:18;101790.97;;;24.67;26.25
50854;BME280;44154;45.506;-122.806;2023-01-31T04:02:49;101797.38;;;24.42;26.47
50854;BME280;44154;45.506;-122.806;2023-01-31T04:05:23;101795.59;;;24.17;26.78
50854;BME280;44154;45.506;-122.806;2023-01-31T04:07:56;101802.34;;;23.96;27.20
50854;BME280;44154;45.506;-122.806;2023-01-31T04:10:22;101801.69;;;23.76;27.45
50854;BME280;44154;45.506;-122.806;2023-01-31T04:12:49;101817.13;;;23.63;27.53
50854;BME280;44154;45.506;-122.806;2023-01-31T04:15:16;101815.97;;;23.52;27.44
50854;BME280;44154;45.506;-122.806;2023-01-31T04:17:43;101824.97;;;23.78;27.31
50854;BME280;44154;45.506;-122.806;2023-01-31T04:20:10;101833.56;;;24.25;26.92
50854;BME280;44154;45.506;-122.806;2023-01-31T04:22:36;101832.97;;;24.61;26.49
50854;BME280;44154;45.506;-122.806;2023-01-31T04:25:03;101832.97;;;24.61;26.54
50854;BME280;44154;45.506;-122.806;2023-01-31T04:27:30;101839.88;;;24.45;26.46
50854;BME280;44154;45.506;-122.806;2023-01-31T04:29:56;101846.78;;;24.29;26.85
50854;BME280;44154;45.506;-122.806;2023-01-31T04:32:22;101838.59;;;24.10;27.56
50854;BME280;44154;45.506;-122.806;2023-01-31T04:34:48;101847.53;;;23.99;28.38
50854;BME280;44154;45.506;-122.806;2023-01-31T04:37:16;101837.13;;;23.82;29.63
50854;BME280;44154;45.506;-122.806;2023-01-31T04:39:42;101838.94;;;23.70;28.72
50854;BME280;44154;45.506;-122.806;2023-01-31T04:42:08;101786.09;;;23.32;28.30
50854;BME280;44154;45.506;-122.806;2023-01-31T04:44:34;101828.69;;;23.90;27.84
50854;BME280;44154;45.506;-122.806;2023-01-31T04:47:01;101818.28;;;24.18;27.44
50854;BME280;44154;45.506;-122.806;2023-01-31T04:49:27;101844.31;;;24.57;27.02
50854;BME280;44154;45.506;-122.806;2023-01-31T04:51:53;101847.28;;;24.56;26.83
50854;BME280;44154;45.506;-122.806;2023-01-31T04:54:19;101838.66;;;24.40;26.86
50854;BME280;44154;45.506;-122.806;2023-01-31T04:56:45;101836.00;;;24.15;26.92
50854;BME280;44154;45.506;-122.806;2023-01-31T04:59:11;101821.69;;;23.95;27.14
50854;BME280;44154;45.506;-122.806;2023-01-31T05:01:37;101828.94;;;23.82;27.44
50854;BME280;44154;45.506;-122.806;2023-01-31T05:04:03;101835.13;;;23.71;27.58
50854;BME280;44154;45.506;-122.806;2023-01-31T05:06:29;101835.34;;;23.69;27.57
50854;BME280;44154;45.506;-122.806;2023-01-31T05:08:56;101816.69;;;23.92;27.18
50854;BME280;44154;45.506;-122.806;2023-01-31T05:11:27;101840.25;;;24.48;26.74
50854;BME280;44154;45.506;-122.806;2023-01-31T05:13:53;101823.00;;;24.66;26.11
50854;BME280;44154;45.506;-122.806;2023-01-31T05:16:19;101844.22;;;24.71;26.09
50854;BME280;44154;45.506;-122.806;2023-01-31T05:18:45;101844.19;;;24.52;26.37
50854;BME280;44154;45.506;-122.806;2023-01-31T05:21:11;101847.16;;;24.32;26.41
50854;BME280;44154;45.506;-122.806;2023-01-31T05:23:38;101841.63;;;24.02;26.62
50854;BME280;44154;45.506;-122.806;2023-01-31T05:26:04;101840.06;;;23.87;26.79
50854;BME280;44154;45.506;-122.806;2023-01-31T05:28:30;101853.84;;;23.74;27.26
50854;BME280;44154;45.506;-122.806;2023-01-31T05:31:05;101832.97;;;23.54;27.30
50854;BME280;44154;45.506;-122.806;2023-01-31T05:33:31;101847.81;;;23.90;27.18
50854;BME280;44154;45.506;-122.806;2023-01-31T05:35:58;101845.72;;;24.30;26.64
50854;BME280;44154;45.506;-122.806;2023-01-31T05:38:25;101848.47;;;24.67;26.21
50854;BME280;44154;45.506;-122.806;2023-01-31T05:40:51;101837.66;;;24.72;26.07
50854;BME280;44154;45.506;-122.806;2023-01-31T05:43:17;101829.22;;;24.55;25.86
50854;BME280;44154;45.506;-122.806;2023-01-31T05:45:43;101808.94;;;24.25;26.17
50854;BME280;44154;45.506;-122.806;2023-01-31T05:48:10;101823.00;;;24.11;26.48
50854;BME280;44154;45.506;-122.806;2023-01-31T05:50:36;101820.50;;;23.84;26.73
50854;BME280;44154;45.506;-122.806;2023-01-31T05:53:02;101838.22;;;23.81;26.76
50854;BME280;44154;45.506;-122.806;2023-01-31T05:55:29;101837.50;;;23.67;26.89
50854;BME280;44154;45.506;-122.806;2023-01-31T05:57:55;101844.56;;;23.75;27.56
50854;BME280;44154;45.506;-122.806;2023-01-31T06:00:22;101843.34;;;23.96;27.24
50854;BME280;44154;45.506;-122.806;2023-01-31T06:02:49;101852.25;;;24.29;26.79
50854;BME280;44154;45.506;-122.806;2023-01-31T06:05:15;101858.28;;;24.37;26.59
50854;BME280;44154;45.506;-122.806;2023-01-31T06:07:41;101850.28;;;24.17;26.78
50854;BME280;44154;45.506;-122.806;2023-01-31T06:10:09;101878.31;;;24.13;27.29
50854;BME280;44154;45.506;-122.806;2023-01-31T06:12:36;101873.44;;;23.96;27.11
50854;BME280;44154;45.506;-122.806;2023-01-31T06:15:02;101860.97;;;23.75;27.47
50854;BME280;44154;45.506;-122.806;2023-01-31T06:17:29;101869.00;;;23.70;27.49
50854;BME280;44154;45.506;-122.806;2023-01-31T06:19:55;101868.22;;;23.63;27.37
50854;BME280;44154;45.506;-122.806;2023-01-31T06:22:21;101838.16;;;23.63;27.73
50854;BME280;44154;45.506;-122.806;2023-01-31T06:24:47;101852.56;;;24.02;27.26
50854;BME280;44154;45.506;-122.806;2023-01-31T06:27:14;101845.72;;;24.30;26.87
50854;BME280;44154;45.506;-122.806;2023-01-31T06:29:40;101850.13;;;24.31;26.59
50854;BME280;44154;45.506;-122.806;2023-01-31T06:32:06;101855.66;;;24.24;26.82
50854;BME280;44154;45.506;-122.806;2023-01-31T06:34:32;101840.56;;;24.03;27.03
50854;BME280;44154;45.506;-122.806;2023-01-31T06:36:58;101846.78;;;23.92;27.33
50854;BME280;44154;45.506;-122.806;2023-01-31T06:39:24;101843.91;;;23.80;27.55
50854;BME280;44154;45.506;-122.806;2023-01-31T06:41:51;101838.41;;;23.61;27.38
50854;BME280;44154;45.506;-122.806;2023-01-31T06:44:17;101842.13;;;23.67;27.88
50854;BME280;44154;45.506;-122.806;2023-01-31T06:46:43;101812.38;;;23.77;27.58
50854;BME280;44154;45.506;-122.806;2023-01-31T06:49:09;101819.97;;;24.19;27.16
50854;BME280;44154;45.506;-122.806;2023-01-31T06:51:35;101828.53;;;24.41;27.22
50854;BME280;44154;45.506;-122.806;2023-01-31T06:54:02;101772.94;;;24.10;26.71
50854;BME280;44154;45.506;-122.806;2023-01-31T06:56:28;101825.06;;;24.34;26.81
50854;BME280;44154;45.506;-122.806;2023-01-31T06:58:54;101807.88;;;24.08;26.96
50854;BME280;44154;45.506;-122.806;2023-01-31T07:01:20;101816.78;;;24.03;26.99
50854;BME280;44154;45.506;-122.806;2023-01-31T07:03:49;101815.66;;;23.86;27.13
50854;BME280;44154;45.506;-122.806;2023-01-31T07:06:15;101814.56;;;23.68;27.49
50854;BME280;44154;45.506;-122.806;2023-01-31T07:08:44;101823.09;;;23.53;27.63
50854;BME280;44154;45.506;-122.806;2023-01-31T07:11:10;101817.75;;;23.40;27.81
50854;BME280;44154;45.506;-122.806;2023-01-31T07:13:37;101813.19;;;23.34;27.86
50854;BME280;44154;45.506;-122.806;2023-01-31T07:16:03;101804.13;;;23.33;27.22
50854;BME280;44154;45.506;-122.806;2023-01-31T07:18:29;101799.00;;;23.18;27.72
50854;BME280;44154;45.506;-122.806;2023-01-31T07:20:55;101829.00;;;23.25;28.44
50854;BME280;44154;45.506;-122.806;2023-01-31T07:23:21;101828.78;;;23.27;29.49
50854;BME280;44154;45.506;-122.806;2023-01-31T07:25:48;101825.66;;;23.23;29.61
50854;BME280;44154;45.506;-122.806;2023-01-31T07:28:14;101812.50;;;23.07;30.05
50854;BME280;44154;45.506;-122.806;2023-01-31T07:30:40;101838.28;;;23.17;30.39
50854;BME280;44154;45.506;-122.806;2023-01-31T07:33:09;101828.25;;;23.11;30.37
50854;BME280;44154;45.506;-122.806;2023-01-31T07:35:36;101831.81;;;23.12;29.44
50854;BME280;44154;45.506;-122.806;2023-01-31T07:38:02;101832.88;;;23.11;29.89
50854;BME280;44154;45.506;-122.806;2023-01-31T07:40:28;101824.50;;;23.37;31.22
50854;BME280;44154;45.506;-122.806;2023-01-31T07:42:58;101825.34;;;23.88;32.04
50854;BME280;44154;45.506;-122.806;2023-01-31T07:45:25;101819.34;;;24.17;31.73
50854;BME280;44154;45.506;-122.806;2023-01-31T07:47:52;101808.03;;;24.13;29.83
50854;BME280;44154;45.506;-122.806;2023-01-31T07:50:18;101805.88;;;23.97;30.07
50854;BME280;44154;45.506;-122.806;2023-01-31T07:52:45;101789.44;;;23.78;31.25
50854;BME280;44154;45.506;-122.806;2023-01-31T07:55:13;101776.38;;;23.62;33.25
50854;BME280;44154;45.506;-122.806;2023-01-31T07:57:39;101770.41;;;23.46;32.23
50854;BME280;44154;45.506;-122.806;2023-01-31T08:00:06;101765.66;;;23.35;31.87
50854;BME280;44154;45.506;-122.806;2023-01-31T08:02:52;101767.25;;;23.24;31.92
50854;BME280;44154;45.506;-122.806;2023-01-31T08:05:37;101754.94;;;23.08;31.25
50854;BME280;44154;45.506;-122.806;2023-01-31T08:08:03;101769.19;;;23.10;31.05
50854;BME280;44154;45.506;-122.806;2023-01-31T08:10:35;101756.44;;;23.04;30.97
50854;BME280;44154;45.506;-122.806;2023-01-31T08:13:02;101773.03;;;23.60;29.73
50854;BME280;44154;45.506;-122.806;2023-01-31T08:15:28;101780.94;;;24.12;29.51
50854;BME280;44154;45.506;-122.806;2023-01-31T08:17:55;101783.94;;;24.22;30.76
50854;BME280;44154;45.506;-122.806;2023-01-31T08:20:21;101786.09;;;24.01;30.87
50854;BME280;44154;45.506;-122.806;2023-01-31T08:22:47;101784.66;;;23.73;30.81
50854;BME280;44154;45.506;-122.806;2023-01-31T08:25:13;101790.31;;;23.53;30.91
50854;BME280;44154;45.506;-122.806;2023-01-31T08:27:39;101794.22;;;23.39;31.23
50854;BME280;44154;45.506;-122.806;2023-01-31T08:30:06;101787.19;;;23.25;31.38
50854;BME280;44154;45.506;-122.806;2023-01-31T08:32:32;101786.03;;;23.14;31.18
50854;BME280;44154;45.506;-122.806;2023-01-31T08:34:58;101761.09;;;22.97;31.73
50854;BME280;44154;45.506;-122.806;2023-01-31T08:37:25;101753.59;;;22.92;30.49
50854;BME280;44154;45.506;-122.806;2023-01-31T08:39:51;101766.44;;;23.42;29.72
50854;BME280;44154;45.506;-122.806;2023-01-31T08:42:17;101761.56;;;23.95;28.98
50854;BME280;44154;45.506;-122.806;2023-01-31T08:44:44;101771.09;;;24.22;29.21
50854;BME280;44154;45.506;-122.806;2023-01-31T08:47:10;101768.59;;;24.02;29.35
50854;BME280;44154;45.506;-122.806;2023-01-31T08:49:36;101765.28;;;23.75;29.67
50854;BME280;44154;45.506;-122.806;2023-01-31T08:52:03;101761.31;;;23.52;30.10
50854;BME280;44154;45.506;-122.806;2023-01-31T08:54:30;101751.06;;;23.23;29.83
50854;BME280;44154;45.506;-122.806;2023-01-31T08:56:56;101764.09;;;23.20;29.75
50854;BME280;44154;45.506;-122.806;2023-01-31T08:59:22;101778.84;;;23.19;29.62
50854;BME280;44154;45.506;-122.806;2023-01-31T09:01:48;101770.09;;;23.04;29.41
50854;BME280;44154;45.506;-122.806;2023-01-31T09:04:14;101775.94;;;23.08;29.96
50854;BME280;44154;45.506;-122.806;2023-01-31T09:06:40;101761.06;;;23.35;29.50
50854;BME280;44154;45.506;-122.806;2023-01-31T09:09:06;101764.56;;;23.86;28.86
50854;BME280;44154;45.506;-122.806;2023-01-31T09:11:32;101769.81;;;24.06;27.92
50854;BME280;44154;45.506;-122.806;2023-01-31T09:14:00;101775.28;;;23.88;27.28
50854;BME280;44154;45.506;-122.806;2023-01-31T09:16:26;101774.22;;;23.64;27.19
50854;BME280;44154;45.506;-122.806;2023-01-31T09:18:53;101774.41;;;23.44;27.54
50854;BME280;44154;45.506;-122.806;2023-01-31T09:21:20;101784.44;;;23.25;27.60
50854;BME280;44154;45.506;-122.806;2023-01-31T09:23:47;101773.63;;;23.11;27.93
50854;BME280;44154;45.506;-122.806;2023-01-31T09:26:15;101784.00;;;22.96;29.04
50854;BME280;44154;45.506;-122.806;2023-01-31T09:28:41;101788.28;;;22.85;30.11
50854;BME280;44154;45.506;-122.806;2023-01-31T09:31:13;101781.47;;;23.01;30.33
50854;BME280;44154;45.506;-122.806;2023-01-31T09:33:40;101788.53;;;23.41;31.47
50854;BME280;44154;45.506;-122.806;2023-01-31T09:36:09;101779.03;;;23.68;31.06
50854;BME280;44154;45.506;-122.806;2023-01-31T09:38:36;101780.91;;;23.68;30.20
50854;BME280;44154;45.506;-122.806;2023-01-31T09:41:04;101776.50;;;23.48;30.34
50854;BME280;44154;45.506;-122.806;2023-01-31T09:43:38;101774.16;;;23.27;30.66
50854;BME280;44154;45.506;-122.806;2023-01-31T09:46:11;101754.19;;;22.94;31.10
50854;BME280;44154;45.506;-122.806;2023-01-31T09:48:38;101777.31;;;22.92;31.16
50854;BME280;44154;45.506;-122.806;2023-01-31T09:51:05;101773.19;;;22.82;30.92
50854;BME280;44154;45.506;-122.806;2023-01-31T09:53:34;101768.06;;;22.93;31.79
50854;BME280;44154;45.506;-122.806;2023-01-31T09:59:15;101772.19;;;23.59;30.93
50854;BME280;44154;45.506;-122.806;2023-01-31T10:07:33;101774.97;;;23.27;30.30
50854;BME280;44154;45.506;-122.806;2023-01-31T10:10:37;101770.47;;;23.08;30.55
50854;BME280;44154;45.506;-122.806;2023-01-31T10:13:52;101779.41;;;22.96;30.45
50854;BME280;44154;45.506;-122.806;2023-01-31T10:18:40;101786.06;;;23.00;31.41
50854;BME280;44154;45.506;-122.806;2023-01-31T10:25:00;101758.78;;;23.32;29.51
50854;BME280;44154;45.506;-122.806;2023-01-31T10:27:46;101792.47;;;23.45;29.93
50854;BME280;44154;45.506;-122.806;2023-01-31T10:30:17;101784.69;;;23.23;29.89
50854;BME280;44154;45.506;-122.806;2023-01-31T10:32:46;101787.06;;;23.06;30.17
50854;BME280;44154;45.506;-122.806;2023-01-31T10:35:36;101776.69;;;22.90;30.33
50854;BME280;44154;45.506;-122.806;2023-01-31T10:38:31;101774.88;;;22.77;30.46
50854;BME280;44154;45.506;-122.806;2023-01-31T10:41:10;101779.69;;;22.81;31.24
50854;BME280;44154;45.506;-122.806;2023-01-31T10:43:50;101761.91;;;23.04;30.62
50854;BME280;44154;45.506;-122.806;2023-01-31T10:46:18;101778.38;;;23.48;29.96
50854;BME280;44154;45.506;-122.806;2023-01-31T10:48:46;101775.97;;;23.58;29.32
50854;BME280;44154;45.506;-122.806;2023-01-31T10:51:17;101779.06;;;23.43;29.45
50854;BME280;44154;45.506;-122.806;2023-01-31T10:54:11;101781.13;;;23.23;29.73
50854;BME280;44154;45.506;-122.806;2023-01-31T10:56:45;101778.50;;;23.02;30.02
50854;BME280;44154;45.506;-122.806;2023-01-31T10:59:31;101767.72;;;22.82;30.08
50854;BME280;44154;45.506;-122.806;2023-01-31T11:01:59;101777.84;;;22.75;30.23
50854;BME280;44154;45.506;-122.806;2023-01-31T11:04:37;101781.63;;;22.74;30.93
50854;BME280;44154;45.506;-122.806;2023-01-31T11:07:05;101774.75;;;22.97;30.60
50854;BME280;44154;45.506;-122.806;2023-01-31T11:09:40;101778.16;;;23.24;30.07
50854;BME280;44154;45.506;-122.806;2023-01-31T11:12:08;101776.72;;;23.47;29.32
50854;BME280;44154;45.506;-122.806;2023-01-31T11:14:34;101767.97;;;23.38;29.38
50854;BME280;44154;45.506;-122.806;2023-01-31T11:17:21;101756.34;;;23.17;29.34
50854;BME280;44154;45.506;-122.806;2023-01-31T11:19:51;101757.03;;;23.06;29.52
50854;BME280;44154;45.506;-122.806;2023-01-31T11:22:30;101758.41;;;22.90;29.72
50854;BME280;44154;45.506;-122.806;2023-01-31T11:24:59;101761.66;;;22.80;29.90
50854;BME280;44154;45.506;-122.806;2023-01-31T11:27:38;101762.72;;;22.73;29.89
50854;BME280;44154;45.506;-122.806;2023-01-31T11:30:06;101740.31;;;22.96;30.38
50854;BME280;44154;45.506;-122.806;2023-01-31T11:32:43;101729.50;;;23.14;29.86
50854;BME280;44154;45.506;-122.806;2023-01-31T11:37:51;101745.59;;;23.48;28.99
50854;BME280;44154;45.506;-122.806;2023-01-31T11:43:03;101731.41;;;23.07;29.37
50854;BME280;44154;45.506;-122.806;2023-01-31T11:45:36;101737.44;;;22.91;29.58
50854;BME280;44154;45.506;-122.806;2023-01-31T11:48:13;101739.63;;;22.75;29.60
50854;BME280;44154;45.506;-122.806;2023-01-31T11:50:44;101748.06;;;22.67;30.15
50854;BME280;44154;45.506;-122.806;2023-01-31T11:53:20;101733.28;;;22.81;30.09
50854;BME280;44154;45.506;-122.806;2023-01-31T11:55:48;101736.44;;;23.10;29.85
50854;BME280;44154;45.506;-122.806;2023-01-31T11:58:21;101741.84;;;23.42;29.10
50854;BME280;44154;45.506;-122.806;2023-01-31T12:01:01;101722.72;;;23.42;28.71
50854;BME280;44154;45.506;-122.806;2023-01-31T12:03:30;101725.38;;;23.30;28.99
50854;BME280;44154;45.506;-122.806;2023-01-31T12:06:08;101694.53;;;22.98;29.18
50854;BME280;44154;45.506;-122.806;2023-01-31T12:08:37;101709.28;;;22.90;29.39
50854;BME280;44154;45.506;-122.806;2023-01-31T12:13:53;101706.75;;;22.63;29.77
50854;BME280;44154;45.506;-122.806;2023-01-31T12:16:27;101705.53;;;22.84;29.97
50854;BME280;44154;45.506;-122.806;2023-01-31T12:24:10;101716.91;;;23.38;28.59
50854;BME280;44154;45.506;-122.806;2023-01-31T12:29:40;101719.91;;;23.05;29.05
50854;BME280;44154;45.506;-122.806;2023-01-31T12:32:33;101728.63;;;22.89;29.30
50854;BME280;44154;45.506;-122.806;2023-01-31T12:43:53;101718.03;;;23.49;28.35
50854;BME280;44154;45.506;-122.806;2023-01-31T12:52:04;101711.69;;;23.05;28.95
50854;BME280;44154;45.506;-122.806;2023-01-31T12:57:31;101699.06;;;22.54;29.48
50854;BME280;44154;45.506;-122.806;2023-01-31T13:03:00;101704.59;;;22.97;29.22
50854;BME280;44154;45.506;-122.806;2023-01-31T13:08:22;101696.72;;;23.40;28.41
50854;BME280;44154;45.506;-122.806;2023-01-31T13:11:23;101698.06;;;23.30;28.51
50854;BME280;44154;45.506;-122.806;2023-01-31T13:14:01;101702.00;;;23.09;28.73
50854;BME280;44154;45.506;-122.806;2023-01-31T13:16:33;101682.50;;;22.80;29.05
50854;BME280;44154;45.506;-122.806;2023-01-31T13:19:03;101698.69;;;22.75;29.35
50854;BME280;44154;45.506;-122.806;2023-01-31T13:21:33;101686.66;;;22.58;29.64
50854;BME280;44154;45.506;-122.806;2023-01-31T13:24:14;101691.78;;;22.73;29.38
50854;BME280;44154;45.506;-122.806;2023-01-31T13:26:48;101674.19;;;22.94;28.99
50854;BME280;44154;45.506;-122.806;2023-01-31T13:29:39;101675.28;;;23.36;28.48
50854;BME280;44154;45.506;-122.806;2023-01-31T13:32:17;101684.06;;;23.45;28.29
50854;BME280;44154;45.506;-122.806;2023-01-31T13:34:53;101687.34;;;23.29;28.38
50854;BME280;44154;45.506;-122.806;2023-01-31T13:37:21;101704.31;;;23.12;28.52
50854;BME280;44154;45.506;-122.806;2023-01-31T13:39:54;101672.59;;;23.11;28.75
50854;BME280;44154;45.506;-122.806;2023-01-31T13:42:22;101695.88;;;23.39;28.50
50854;BME280;44154;45.506;-122.806;2023-01-31T13:44:48;101697.47;;;23.65;28.00
50854;BME280;44154;45.506;-122.806;2023-01-31T13:47:44;101717.94;;;23.81;27.82
50854;BME280;44154;45.506;-122.806;2023-01-31T13:50:47;101711.22;;;23.59;27.95
50854;BME280;44154;45.506;-122.806;2023-01-31T13:53:32;101711.75;;;23.49;27.92
50854;BME280;44154;45.506;-122.806;2023-01-31T13:56:01;101720.41;;;23.46;27.75
50854;BME280;44154;45.506;-122.806;2023-01-31T13:58:31;101713.38;;;23.31;27.91
50854;BME280;44154;45.506;-122.806;2023-01-31T14:09:37;101728.88;;;24.00;27.27
50854;BME280;44154;45.506;-122.806;2023-01-31T14:14:38;101729.28;;;23.78;26.96
50854;BME280;44154;45.506;-122.806;2023-01-31T14:17:12;101723.97;;;23.65;26.96